sensor_id;sensor_type;location;lat;lon;timestamp;P1;durP1;ratioP1;P2;durP2;ratioP2
56824;SDS011;42705;50.326;18.772;2022-12-07T00:00:30;30.65;;;15.50;;
56824;SDS011;42705;50.326;18.772;2022-12-07T00:05:53;38.25;;;18.23;;
56824;SDS011;42705;50.326;18.772;2022-12-07T00:11:20;34.98;;;18.20;;
56824;SDS011;42705;50.326;18.772;2022-12-07T00:16:43;37.65;;;18.02;;
56824;SDS011;42705;50.326;18.772;2022-12-07T00:22:04;41.10;;;18.95;;
56824;SDS011;42705;50.326;18.772;2022-12-07T00:27:26;30.60;;;17.17;;
56824;SDS011;42705;50.326;18.772;2022-12-07T00:32:48;30.15;;;16.52;;
56824;SDS011;42705;50.326;18.772;2022-12-07T00:38:09;31.80;;;16.48;;
56824;SDS011;42705;50.326;18.772;2022-12-07T00:43:31;37.55;;;17.02;;
56824;SDS011;42705;50.326;18.772;2022-12-07T00:48:53;30.47;;;17.03;;
56824;SDS011;42705;50.326;18.772;2022-12-07T00:54:15;33.98;;;17.62;;
56824;SDS011;42705;50.326;18.772;2022-12-07T00:59:36;29.80;;;17.92;;
56824;SDS011;42705;50.326;18.772;2022-12-07T01:04:57;32.45;;;16.97;;
56824;SDS011;42705;50.326;18.772;2022-12-07T01:10:18;31.30;;;19.23;;
56824;SDS011;42705;50.326;18.772;2022-12-07T01:15:43;36.83;;;19.48;;
56824;SDS011;42705;50.326;18.772;2022-12-07T01:21:06;34.38;;;17.82;;
56824;SDS011;42705;50.326;18.772;2022-12-07T01:26:37;38.90;;;20.02;;
56824;SDS011;42705;50.326;18.772;2022-12-07T01:31:59;36.13;;;17.90;;
56824;SDS011;42705;50.326;18.772;2022-12-07T01:37:20;29.30;;;15.65;;
56824;SDS011;42705;50.326;18.772;2022-12-07T01:42:41;27.95;;;13.98;;
56824;SDS011;42705;50.326;18.772;2022-12-07T01:48:02;27.67;;;14.78;;
56824;SDS011;42705;50.326;18.772;2022-12-07T01:53:26;24.72;;;13.08;;
56824;SDS011;42705;50.326;18.772;2022-12-07T01:58:50;26.12;;;12.65;;
56824;SDS011;42705;50.326;18.772;2022-12-07T02:04:13;22.58;;;12.43;;
56824;SDS011;42705;50.326;18.772;2022-12-07T02:09:35;24.97;;;13.57;;
56824;SDS011;42705;50.326;18.772;2022-12-07T02:14:56;21.97;;;13.25;;
56824;SDS011;42705;50.326;18.772;2022-12-07T02:20:22;26.45;;;13.15;;
56824;SDS011;42705;50.326;18.772;2022-12-07T02:44:00;25.43;;;13.38;;
56824;SDS011;42705;50.326;18.772;2022-12-07T02:49:25;21.68;;;13.55;;
56824;SDS011;42705;50.326;18.772;2022-12-07T03:00:11;20.65;;;12.18;;
56824;SDS011;42705;50.326;18.772;2022-12-07T03:11:37;25.90;;;13.48;;
56824;SDS011;42705;50.326;18.772;2022-12-07T03:17:13;32.65;;;16.25;;
56824;SDS011;42705;50.326;18.772;2022-12-07T03:22:39;33.50;;;15.95;;
56824;SDS011;42705;50.326;18.772;2022-12-07T03:28:03;35.92;;;16.77;;
56824;SDS011;42705;50.326;18.772;2022-12-07T03:33:28;40.65;;;18.25;;
56824;SDS011;42705;50.326;18.772;2022-12-07T03:39:03;41.20;;;18.27;;
56824;SDS011;42705;50.326;18.772;2022-12-07T03:44:43;49.10;;;20.88;;
56824;SDS011;42705;50.326;18.772;2022-12-07T03:50:52;46.95;;;19.40;;
56824;SDS011;42705;50.326;18.772;2022-12-07T03:55:44;43.45;;;19.12;;
56824;SDS011;42705;50.326;18.772;2022-12-07T04:01:08;40.63;;;18.92;;
56824;SDS011;42705;50.326;18.772;2022-12-07T04:06:30;41.35;;;16.85;;
56824;SDS011;42705;50.326;18.772;2022-12-07T04:11:51;38.78;;;16.55;;
56824;SDS011;42705;50.326;18.772;2022-12-07T04:17:12;41.68;;;17.17;;
56824;SDS011;42705;50.326;18.772;2022-12-07T04:22:33;32.15;;;14.90;;
56824;SDS011;42705;50.326;18.772;2022-12-07T04:27:55;31.23;;;15.05;;
56824;SDS011;42705;50.326;18.772;2022-12-07T04:33:17;31.50;;;13.85;;
56824;SDS011;42705;50.326;18.772;2022-12-07T04:38:38;28.50;;;14.10;;
56824;SDS011;42705;50.326;18.772;2022-12-07T04:44:03;27.40;;;12.93;;
56824;SDS011;42705;50.326;18.772;2022-12-07T04:49:27;27.58;;;13.05;;
56824;SDS011;42705;50.326;18.772;2022-12-07T04:54:48;27.77;;;12.60;;
56824;SDS011;42705;50.326;18.772;2022-12-07T05:00:11;25.68;;;12.13;;
56824;SDS011;42705;50.326;18.772;2022-12-07T05:05:32;23.52;;;10.88;;
56824;SDS011;42705;50.326;18.772;2022-12-07T05:10:55;23.30;;;11.53;;
56824;SDS011;42705;50.326;18.772;2022-12-07T05:16:17;22.75;;;10.98;;
56824;SDS011;42705;50.326;18.772;2022-12-07T05:21:38;18.20;;;9.40;;
56824;SDS011;42705;50.326;18.772;2022-12-07T05:27:00;22.43;;;11.33;;
56824;SDS011;42705;50.326;18.772;2022-12-07T05:32:21;18.90;;;9.70;;
56824;SDS011;42705;50.326;18.772;2022-12-07T05:37:41;16.65;;;8.53;;
56824;SDS011;42705;50.326;18.772;2022-12-07T05:43:03;19.73;;;9.33;;
56824;SDS011;42705;50.326;18.772;2022-12-07T05:48:24;14.87;;;7.47;;
56824;SDS011;42705;50.326;18.772;2022-12-07T05:53:46;17.83;;;8.93;;
56824;SDS011;42705;50.326;18.772;2022-12-07T05:59:08;16.52;;;10.13;;
56824;SDS011;42705;50.326;18.772;2022-12-07T06:04:46;16.32;;;9.38;;
56824;SDS011;42705;50.326;18.772;2022-12-07T06:10:07;25.40;;;12.40;;
56824;SDS011;42705;50.326;18.772;2022-12-07T06:15:29;24.12;;;12.90;;
56824;SDS011;42705;50.326;18.772;2022-12-07T06:20:50;25.05;;;13.45;;
56824;SDS011;42705;50.326;18.772;2022-12-07T06:26:11;25.13;;;13.70;;
56824;SDS011;42705;50.326;18.772;2022-12-07T06:31:32;23.12;;;12.15;;
56824;SDS011;42705;50.326;18.772;2022-12-07T06:36:53;24.27;;;12.33;;
56824;SDS011;42705;50.326;18.772;2022-12-07T06:42:15;21.33;;;10.88;;
56824;SDS011;42705;50.326;18.772;2022-12-07T06:47:36;19.67;;;11.10;;
56824;SDS011;42705;50.326;18.772;2022-12-07T06:52:57;26.33;;;12.87;;
56824;SDS011;42705;50.326;18.772;2022-12-07T06:58:18;22.20;;;11.90;;
56824;SDS011;42705;50.326;18.772;2022-12-07T07:03:39;21.77;;;12.07;;
56824;SDS011;42705;50.326;18.772;2022-12-07T07:09:00;25.73;;;12.83;;
56824;SDS011;42705;50.326;18.772;2022-12-07T07:14:21;21.97;;;12.13;;
56824;SDS011;42705;50.326;18.772;2022-12-07T07:19:42;23.77;;;11.60;;
56824;SDS011;42705;50.326;18.772;2022-12-07T07:25:04;22.87;;;12.23;;
56824;SDS011;42705;50.326;18.772;2022-12-07T07:30:26;23.97;;;12.33;;
56824;SDS011;42705;50.326;18.772;2022-12-07T07:35:48;27.37;;;13.25;;
56824;SDS011;42705;50.326;18.772;2022-12-07T07:41:09;24.02;;;12.03;;
56824;SDS011;42705;50.326;18.772;2022-12-07T07:46:30;20.85;;;11.70;;
56824;SDS011;42705;50.326;18.772;2022-12-07T07:57:14;24.87;;;11.85;;
56824;SDS011;42705;50.326;18.772;2022-12-07T08:02:37;22.37;;;11.22;;
56824;SDS011;42705;50.326;18.772;2022-12-07T08:07:59;24.07;;;12.88;;
56824;SDS011;42705;50.326;18.772;2022-12-07T08:13:20;23.60;;;11.73;;
56824;SDS011;42705;50.326;18.772;2022-12-07T08:18:41;27.02;;;13.45;;
56824;SDS011;42705;50.326;18.772;2022-12-07T08:24:03;21.75;;;12.23;;
56824;SDS011;42705;50.326;18.772;2022-12-07T08:29:25;24.23;;;12.90;;
56824;SDS011;42705;50.326;18.772;2022-12-07T08:34:46;28.27;;;14.38;;
56824;SDS011;42705;50.326;18.772;2022-12-07T08:40:08;20.75;;;11.18;;
56824;SDS011;42705;50.326;18.772;2022-12-07T08:45:31;18.82;;;10.82;;
56824;SDS011;42705;50.326;18.772;2022-12-07T08:50:54;17.55;;;10.40;;
56824;SDS011;42705;50.326;18.772;2022-12-07T08:56:15;15.15;;;8.15;;
56824;SDS011;42705;50.326;18.772;2022-12-07T09:01:37;16.30;;;9.00;;
56824;SDS011;42705;50.326;18.772;2022-12-07T09:06:58;11.78;;;7.75;;
56824;SDS011;42705;50.326;18.772;2022-12-07T09:12:19;13.10;;;7.58;;
56824;SDS011;42705;50.326;18.772;2022-12-07T09:17:40;13.03;;;7.62;;
56824;SDS011;42705;50.326;18.772;2022-12-07T09:23:01;14.15;;;8.10;;
56824;SDS011;42705;50.326;18.772;2022-12-07T09:28:22;13.57;;;8.67;;
56824;SDS011;42705;50.326;18.772;2022-12-07T09:33:43;21.20;;;10.10;;
56824;SDS011;42705;50.326;18.772;2022-12-07T09:39:04;17.67;;;9.40;;
56824;SDS011;42705;50.326;18.772;2022-12-07T09:44:26;21.60;;;12.00;;
56824;SDS011;42705;50.326;18.772;2022-12-07T09:49:48;20.97;;;11.88;;
56824;SDS011;42705;50.326;18.772;2022-12-07T09:55:13;20.75;;;11.97;;
56824;SDS011;42705;50.326;18.772;2022-12-07T10:00:39;22.85;;;13.30;;
56824;SDS011;42705;50.326;18.772;2022-12-07T10:06:01;27.35;;;14.93;;
56824;SDS011;42705;50.326;18.772;2022-12-07T10:11:25;27.58;;;15.20;;
56824;SDS011;42705;50.326;18.772;2022-12-07T10:16:46;32.30;;;15.63;;
56824;SDS011;42705;50.326;18.772;2022-12-07T10:22:09;27.67;;;14.63;;
56824;SDS011;42705;50.326;18.772;2022-12-07T10:27:35;30.57;;;15.70;;
56824;SDS011;42705;50.326;18.772;2022-12-07T10:32:56;22.93;;;12.73;;
56824;SDS011;42705;50.326;18.772;2022-12-07T10:38:17;19.87;;;11.57;;
56824;SDS011;42705;50.326;18.772;2022-12-07T10:43:46;19.40;;;11.70;;
56824;SDS011;42705;50.326;18.772;2022-12-07T10:55:16;18.85;;;10.43;;
56824;SDS011;42705;50.326;18.772;2022-12-07T11:18:11;19.45;;;11.25;;
56824;SDS011;42705;50.326;18.772;2022-12-07T11:35:30;20.97;;;9.68;;
56824;SDS011;42705;50.326;18.772;2022-12-07T11:41:03;14.35;;;8.43;;
56824;SDS011;42705;50.326;18.772;2022-12-07T11:46:43;12.65;;;7.42;;
56824;SDS011;42705;50.326;18.772;2022-12-07T11:52:14;10.50;;;7.20;;
56824;SDS011;42705;50.326;18.772;2022-12-07T11:57:40;11.45;;;7.75;;
56824;SDS011;42705;50.326;18.772;2022-12-07T12:03:09;9.50;;;6.85;;
56824;SDS011;42705;50.326;18.772;2022-12-07T12:08:45;8.78;;;6.67;;
56824;SDS011;42705;50.326;18.772;2022-12-07T12:20:14;8.88;;;5.90;;
56824;SDS011;42705;50.326;18.772;2022-12-07T12:25:54;7.72;;;5.40;;
56824;SDS011;42705;50.326;18.772;2022-12-07T12:36:49;9.00;;;5.60;;
56824;SDS011;42705;50.326;18.772;2022-12-07T12:42:19;8.00;;;5.42;;
56824;SDS011;42705;50.326;18.772;2022-12-07T12:47:42;9.48;;;5.33;;
56824;SDS011;42705;50.326;18.772;2022-12-07T12:53:25;9.95;;;5.95;;
56824;SDS011;42705;50.326;18.772;2022-12-07T12:58:48;7.90;;;5.62;;
56824;SDS011;42705;50.326;18.772;2022-12-07T13:09:38;8.35;;;5.53;;
56824;SDS011;42705;50.326;18.772;2022-12-07T13:15:22;10.18;;;6.37;;
56824;SDS011;42705;50.326;18.772;2022-12-07T13:20:50;10.60;;;6.72;;
56824;SDS011;42705;50.326;18.772;2022-12-07T13:31:56;10.53;;;5.78;;
56824;SDS011;42705;50.326;18.772;2022-12-07T13:37:28;8.33;;;5.72;;
56824;SDS011;42705;50.326;18.772;2022-12-07T13:42:59;10.38;;;5.87;;
56824;SDS011;42705;50.326;18.772;2022-12-07T13:48:32;10.00;;;5.05;;
56824;SDS011;42705;50.326;18.772;2022-12-07T13:54:11;7.33;;;4.58;;
56824;SDS011;42705;50.326;18.772;2022-12-07T13:59:34;8.08;;;4.15;;
56824;SDS011;42705;50.326;18.772;2022-12-07T14:05:14;8.25;;;4.85;;
56824;SDS011;42705;50.326;18.772;2022-12-07T14:16:22;6.30;;;5.15;;
56824;SDS011;42705;50.326;18.772;2022-12-07T14:22:05;10.00;;;5.72;;
56824;SDS011;42705;50.326;18.772;2022-12-07T14:27:32;6.45;;;4.55;;
56824;SDS011;42705;50.326;18.772;2022-12-07T14:32:57;6.47;;;4.78;;
56824;SDS011;42705;50.326;18.772;2022-12-07T14:38:25;9.18;;;5.97;;
56824;SDS011;42705;50.326;18.772;2022-12-07T14:43:45;8.20;;;5.37;;
56824;SDS011;42705;50.326;18.772;2022-12-07T14:49:06;8.73;;;5.67;;
56824;SDS011;42705;50.326;18.772;2022-12-07T14:54:29;9.30;;;5.92;;
56824;SDS011;42705;50.326;18.772;2022-12-07T14:59:52;10.15;;;6.22;;
56824;SDS011;42705;50.326;18.772;2022-12-07T15:05:14;11.48;;;5.87;;
56824;SDS011;42705;50.326;18.772;2022-12-07T15:10:35;10.78;;;6.58;;
56824;SDS011;42705;50.326;18.772;2022-12-07T15:21:20;12.40;;;7.22;;
56824;SDS011;42705;50.326;18.772;2022-12-07T15:26:41;13.68;;;6.75;;
56824;SDS011;42705;50.326;18.772;2022-12-07T15:32:02;14.03;;;7.05;;
56824;SDS011;42705;50.326;18.772;2022-12-07T15:37:24;11.25;;;6.30;;
56824;SDS011;42705;50.326;18.772;2022-12-07T15:42:45;10.18;;;5.20;;
56824;SDS011;42705;50.326;18.772;2022-12-07T15:48:07;13.45;;;6.50;;
56824;SDS011;42705;50.326;18.772;2022-12-07T15:53:28;14.05;;;6.15;;
56824;SDS011;42705;50.326;18.772;2022-12-07T15:58:49;10.08;;;6.30;;
56824;SDS011;42705;50.326;18.772;2022-12-07T16:04:10;14.87;;;7.00;;
56824;SDS011;42705;50.326;18.772;2022-12-07T16:09:32;12.23;;;7.03;;
56824;SDS011;42705;50.326;18.772;2022-12-07T16:14:53;16.35;;;8.85;;
56824;SDS011;42705;50.326;18.772;2022-12-07T16:20:15;23.07;;;10.78;;
56824;SDS011;42705;50.326;18.772;2022-12-07T16:25:36;18.92;;;8.58;;
56824;SDS011;42705;50.326;18.772;2022-12-07T16:31:07;17.42;;;8.55;;
56824;SDS011;42705;50.326;18.772;2022-12-07T16:36:34;18.50;;;8.50;;
56824;SDS011;42705;50.326;18.772;2022-12-07T16:41:55;21.42;;;10.40;;
56824;SDS011;42705;50.326;18.772;2022-12-07T16:47:16;17.98;;;9.20;;
56824;SDS011;42705;50.326;18.772;2022-12-07T16:58:00;14.78;;;7.40;;
56824;SDS011;42705;50.326;18.772;2022-12-07T17:03:22;17.70;;;8.35;;
56824;SDS011;42705;50.326;18.772;2022-12-07T17:08:43;14.43;;;7.08;;
56824;SDS011;42705;50.326;18.772;2022-12-07T17:14:05;12.50;;;7.33;;
56824;SDS011;42705;50.326;18.772;2022-12-07T17:19:44;15.50;;;9.05;;
56824;SDS011;42705;50.326;18.772;2022-12-07T17:25:07;15.28;;;8.00;;
56824;SDS011;42705;50.326;18.772;2022-12-07T17:30:30;11.93;;;7.17;;
56824;SDS011;42705;50.326;18.772;2022-12-07T17:35:51;13.38;;;8.00;;
56824;SDS011;42705;50.326;18.772;2022-12-07T17:41:17;13.35;;;7.70;;
56824;SDS011;42705;50.326;18.772;2022-12-07T17:46:57;15.65;;;8.53;;
56824;SDS011;42705;50.326;18.772;2022-12-07T17:52:20;14.80;;;8.30;;
56824;SDS011;42705;50.326;18.772;2022-12-07T17:58:01;17.62;;;8.63;;
56824;SDS011;42705;50.326;18.772;2022-12-07T18:03:22;19.23;;;9.20;;
56824;SDS011;42705;50.326;18.772;2022-12-07T18:08:43;20.65;;;9.08;;
56824;SDS011;42705;50.326;18.772;2022-12-07T18:14:04;17.48;;;9.00;;
56824;SDS011;42705;50.326;18.772;2022-12-07T18:19:26;19.02;;;9.40;;
56824;SDS011;42705;50.326;18.772;2022-12-07T18:24:47;20.08;;;10.18;;
56824;SDS011;42705;50.326;18.772;2022-12-07T18:30:09;23.27;;;12.18;;
56824;SDS011;42705;50.326;18.772;2022-12-07T18:35:31;34.08;;;14.63;;
56824;SDS011;42705;50.326;18.772;2022-12-07T18:40:57;31.02;;;13.58;;
56824;SDS011;42705;50.326;18.772;2022-12-07T18:46:18;30.12;;;12.93;;
56824;SDS011;42705;50.326;18.772;2022-12-07T18:51:41;24.87;;;11.10;;
56824;SDS011;42705;50.326;18.772;2022-12-07T18:57:02;22.13;;;10.30;;
56824;SDS011;42705;50.326;18.772;2022-12-07T19:02:24;28.38;;;13.38;;
56824;SDS011;42705;50.326;18.772;2022-12-07T19:07:45;27.17;;;12.25;;
56824;SDS011;42705;50.326;18.772;2022-12-07T19:13:07;23.77;;;12.45;;
56824;SDS011;42705;50.326;18.772;2022-12-07T19:18:29;23.43;;;12.23;;
56824;SDS011;42705;50.326;18.772;2022-12-07T19:23:51;24.82;;;12.23;;
56824;SDS011;42705;50.326;18.772;2022-12-07T19:29:12;20.75;;;9.75;;
56824;SDS011;42705;50.326;18.772;2022-12-07T19:34:34;22.85;;;11.48;;
56824;SDS011;42705;50.326;18.772;2022-12-07T19:39:57;24.00;;;10.53;;
56824;SDS011;42705;50.326;18.772;2022-12-07T19:45:18;19.73;;;8.58;;
56824;SDS011;42705;50.326;18.772;2022-12-07T19:50:39;18.65;;;9.35;;
56824;SDS011;42705;50.326;18.772;2022-12-07T19:56:00;16.82;;;8.65;;
56824;SDS011;42705;50.326;18.772;2022-12-07T20:01:23;15.88;;;9.13;;
56824;SDS011;42705;50.326;18.772;2022-12-07T20:06:45;19.52;;;10.58;;
56824;SDS011;42705;50.326;18.772;2022-12-07T20:12:10;19.85;;;9.93;;
56824;SDS011;42705;50.326;18.772;2022-12-07T20:17:50;18.95;;;10.70;;
56824;SDS011;42705;50.326;18.772;2022-12-07T20:23:11;23.05;;;12.13;;
56824;SDS011;42705;50.326;18.772;2022-12-07T20:28:32;22.17;;;11.93;;
56824;SDS011;42705;50.326;18.772;2022-12-07T20:33:54;19.73;;;11.28;;
56824;SDS011;42705;50.326;18.772;2022-12-07T20:39:19;22.98;;;12.37;;
56824;SDS011;42705;50.326;18.772;2022-12-07T20:44:42;19.17;;;10.82;;
56824;SDS011;42705;50.326;18.772;2022-12-07T20:50:04;16.82;;;10.53;;
56824;SDS011;42705;50.326;18.772;2022-12-07T20:55:27;18.90;;;11.33;;
56824;SDS011;42705;50.326;18.772;2022-12-07T21:00:48;21.52;;;10.93;;
56824;SDS011;42705;50.326;18.772;2022-12-07T21:06:14;17.98;;;9.90;;
56824;SDS011;42705;50.326;18.772;2022-12-07T21:11:34;20.88;;;11.88;;
56824;SDS011;42705;50.326;18.772;2022-12-07T21:16:57;22.10;;;12.55;;
56824;SDS011;42705;50.326;18.772;2022-12-07T21:22:18;29.23;;;12.90;;
56824;SDS011;42705;50.326;18.772;2022-12-07T21:27:39;25.40;;;13.30;;
56824;SDS011;42705;50.326;18.772;2022-12-07T21:33:00;24.12;;;12.35;;
56824;SDS011;42705;50.326;18.772;2022-12-07T21:38:21;30.35;;;15.75;;
56824;SDS011;42705;50.326;18.772;2022-12-07T21:43:42;34.55;;;15.55;;
56824;SDS011;42705;50.326;18.772;2022-12-07T21:49:06;32.83;;;16.77;;
56824;SDS011;42705;50.326;18.772;2022-12-07T21:54:33;39.73;;;18.55;;
56824;SDS011;42705;50.326;18.772;2022-12-07T21:59:54;41.40;;;19.27;;
56824;SDS011;42705;50.326;18.772;2022-12-07T22:05:15;32.20;;;16.70;;
56824;SDS011;42705;50.326;18.772;2022-12-07T22:10:37;33.45;;;16.00;;
56824;SDS011;42705;50.326;18.772;2022-12-07T22:15:58;22.75;;;11.63;;
56824;SDS011;42705;50.326;18.772;2022-12-07T22:21:19;28.02;;;13.03;;
56824;SDS011;42705;50.326;18.772;2022-12-07T22:26:42;23.35;;;12.35;;
56824;SDS011;42705;50.326;18.772;2022-12-07T22:32:04;21.20;;;10.63;;
56824;SDS011;42705;50.326;18.772;2022-12-07T22:37:26;31.77;;;13.53;;
56824;SDS011;42705;50.326;18.772;2022-12-07T22:42:48;35.48;;;16.25;;
56824;SDS011;42705;50.326;18.772;2022-12-07T22:48:09;32.95;;;16.45;;
56824;SDS011;42705;50.326;18.772;2022-12-07T22:53:31;37.63;;;16.77;;
56824;SDS011;42705;50.326;18.772;2022-12-07T22:58:52;33.95;;;16.42;;
56824;SDS011;42705;50.326;18.772;2022-12-07T23:04:14;32.45;;;15.13;;
56824;SDS011;42705;50.326;18.772;2022-12-07T23:09:35;38.88;;;17.52;;
56824;SDS011;42705;50.326;18.772;2022-12-07T23:14:56;29.65;;;14.07;;
56824;SDS011;42705;50.326;18.772;2022-12-07T23:20:17;37.13;;;15.60;;
56824;SDS011;42705;50.326;18.772;2022-12-07T23:25:38;34.37;;;14.50;;
56824;SDS011;42705;50.326;18.772;2022-12-07T23:31:06;28.60;;;13.07;;
56824;SDS011;42705;50.326;18.772;2022-12-07T23:36:31;26.77;;;12.43;;
56824;SDS011;42705;50.326;18.772;2022-12-07T23:41:53;21.60;;;11.22;;
56824;SDS011;42705;50.326;18.772;2022-12-07T23:47:14;24.05;;;10.68;;
56824;SDS011;42705;50.326;18.772;2022-12-07T23:52:35;24.23;;;11.53;;
56824;SDS011;42705;50.326;18.772;2022-12-07T23:57:56;27.83;;;12.20;;
